GCGM/GMZ METAR and TAF weather

Enter ICAO airport designator
Station Type Date Time Source
GCGM METAR 2018/10/22 16:00 UTC NOAA

GCGM 221600Z 23009KT 200V260 9999 VCSH FEW020TCU SCT030 24/17 Q1016 RMK R09/22006KT 170V330 ARP/21008KT 170V270


Station Type Date Time Source
GCGM Decoded METAR 2018/10/22 16:00 UTC NOAA

Station name not available
Oct 22, 2018 - 12:00 PM EDT / 2018.10.22 1600 UTC
Wind: from the SW (230 degrees) at 10 MPH (9 KT) (direction variable):0
Visibility: greater than 7 mile(s):0
Sky conditions: partly cloudy
Weather: showers in the vicinity; Towering cumulus clouds observed
Temperature: 75 F (24 C)
Dew Point: 62 F (17 C)
Relative Humidity: 64%
Pressure (altimeter): 30.00 in. Hg (1016 hPa)
ob: GCGM 221600Z 23009KT 200V260 9999 VCSH FEW020TCU SCT030 24/17 Q1016 RMK R09/22006KT 170V330 ARP/21008KT 170V270
cycle: 16

Station Type Date Time Source
GCGM TAF 2018/10/22 15:00 UTC NOAA

TAF GCGM 221400Z 2215/2315 22010KT 9999 SCT030 TX25/2314Z TN19/2305Z
TEMPO 2221/2309 VRB05KT PROB30
TEMPO 2215/2221 4500 RA


Example: see airport list